sensor_id;sensor_type;location;lat;lon;timestamp;temperature;humidity
6210;DHT22;3138;52.550;13.148;2023-03-19T00:02:06;6.30;1.00
6210;DHT22;3138;52.550;13.148;2023-03-19T00:04:33;6.50;1.00
6210;DHT22;3138;52.550;13.148;2023-03-19T00:07:00;6.40;99.90
6210;DHT22;3138;52.550;13.148;2023-03-19T00:09:27;6.50;99.90
6210;DHT22;3138;52.550;13.148;2023-03-19T00:11:54;6.50;11.30
6210;DHT22;3138;52.550;13.148;2023-03-19T00:14:23;6.50;1.00
6210;DHT22;3138;52.550;13.148;2023-03-19T00:16:49;6.50;1.00
6210;DHT22;3138;52.550;13.148;2023-03-19T00:19:16;6.60;1.00
6210;DHT22;3138;52.550;13.148;2023-03-19T00:21:43;6.50;99.90
6210;DHT22;3138;52.550;13.148;2023-03-19T00:24:11;6.50;99.90
6210;DHT22;3138;52.550;13.148;2023-03-19T00:26:38;6.50;99.90
6210;DHT22;3138;52.550;13.148;2023-03-19T00:29:05;6.40;99.90
6210;DHT22;3138;52.550;13.148;2023-03-19T00:31:33;6.30;99.90
6210;DHT22;3138;52.550;13.148;2023-03-19T00:34:00;6.30;99.90
6210;DHT22;3138;52.550;13.148;2023-03-19T00:36:28;6.20;50.10
6210;DHT22;3138;52.550;13.148;2023-03-19T00:38:55;6.30;99.90
6210;DHT22;3138;52.550;13.148;2023-03-19T00:41:23;6.30;15.00
6210;DHT22;3138;52.550;13.148;2023-03-19T00:43:51;6.40;1.00
6210;DHT22;3138;52.550;13.148;2023-03-19T00:46:18;6.30;1.00
6210;DHT22;3138;52.550;13.148;2023-03-19T00:48:47;6.30;1.00
6210;DHT22;3138;52.550;13.148;2023-03-19T00:51:15;6.30;1.00
6210;DHT22;3138;52.550;13.148;2023-03-19T00:53:43;6.20;1.00
6210;DHT22;3138;52.550;13.148;2023-03-19T00:56:11;6.20;1.00
6210;DHT22;3138;52.550;13.148;2023-03-19T00:58:39;6.10;1.00
6210;DHT22;3138;52.550;13.148;2023-03-19T01:01:06;6.10;1.00
6210;DHT22;3138;52.550;13.148;2023-03-19T01:03:34;6.00;1.00
6210;DHT22;3138;52.550;13.148;2023-03-19T01:06:02;6.00;1.00
6210;DHT22;3138;52.550;13.148;2023-03-19T01:08:29;6.00;1.00
6210;DHT22;3138;52.550;13.148;2023-03-19T01:11:03;5.90;1.00
6210;DHT22;3138;52.550;13.148;2023-03-19T01:13:30;5.80;1.00
6210;DHT22;3138;52.550;13.148;2023-03-19T01:15:56;5.80;1.00
6210;DHT22;3138;52.550;13.148;2023-03-19T01:18:23;5.80;99.90
6210;DHT22;3138;52.550;13.148;2023-03-19T01:20:50;5.80;99.90
6210;DHT22;3138;52.550;13.148;2023-03-19T01:23:19;5.80;1.00
6210;DHT22;3138;52.550;13.148;2023-03-19T01:25:45;6.00;1.00
6210;DHT22;3138;52.550;13.148;2023-03-19T01:28:12;6.00;1.00
6210;DHT22;3138;52.550;13.148;2023-03-19T01:30:39;5.90;1.00
6210;DHT22;3138;52.550;13.148;2023-03-19T01:33:06;5.70;1.00
6210;DHT22;3138;52.550;13.148;2023-03-19T01:35:33;5.70;1.00
6210;DHT22;3138;52.550;13.148;2023-03-19T01:38:00;5.60;1.00
6210;DHT22;3138;52.550;13.148;2023-03-19T01:40:28;5.60;1.00
6210;DHT22;3138;52.550;13.148;2023-03-19T01:43:11;5.60;1.00
6210;DHT22;3138;52.550;13.148;2023-03-19T01:45:40;5.60;15.20
6210;DHT22;3138;52.550;13.148;2023-03-19T01:48:17;5.60;7.20
6210;DHT22;3138;52.550;13.148;2023-03-19T01:50:45;5.60;38.20
6210;DHT22;3138;52.550;13.148;2023-03-19T01:53:17;5.60;16.20
6210;DHT22;3138;52.550;13.148;2023-03-19T01:55:46;5.60;1.00
6210;DHT22;3138;52.550;13.148;2023-03-19T01:58:14;5.70;7.40
6210;DHT22;3138;52.550;13.148;2023-03-19T02:00:41;5.70;22.40
6210;DHT22;3138;52.550;13.148;2023-03-19T02:03:08;5.80;27.60
6210;DHT22;3138;52.550;13.148;2023-03-19T02:05:37;5.90;1.00
6210;DHT22;3138;52.550;13.148;2023-03-19T02:08:07;6.00;1.00
6210;DHT22;3138;52.550;13.148;2023-03-19T02:10:35;6.00;1.00
6210;DHT22;3138;52.550;13.148;2023-03-19T02:13:04;6.10;1.00
6210;DHT22;3138;52.550;13.148;2023-03-19T02:15:31;6.50;1.00
6210;DHT22;3138;52.550;13.148;2023-03-19T02:17:58;6.60;1.00
6210;DHT22;3138;52.550;13.148;2023-03-19T02:20:28;6.70;99.90
6210;DHT22;3138;52.550;13.148;2023-03-19T02:23:02;6.80;1.00
6210;DHT22;3138;52.550;13.148;2023-03-19T02:25:34;7.10;1.00
6210;DHT22;3138;52.550;13.148;2023-03-19T02:28:05;7.10;1.00
6210;DHT22;3138;52.550;13.148;2023-03-19T02:30:34;7.10;99.90
6210;DHT22;3138;52.550;13.148;2023-03-19T02:33:01;7.10;99.90
6210;DHT22;3138;52.550;13.148;2023-03-19T02:35:31;7.10;99.90
6210;DHT22;3138;52.550;13.148;2023-03-19T02:38:00;7.10;99.90
6210;DHT22;3138;52.550;13.148;2023-03-19T02:40:30;7.10;39.50
6210;DHT22;3138;52.550;13.148;2023-03-19T02:42:59;7.20;1.00
6210;DHT22;3138;52.550;13.148;2023-03-19T02:45:29;7.50;1.00
6210;DHT22;3138;52.550;13.148;2023-03-19T02:47:57;7.50;99.90
6210;DHT22;3138;52.550;13.148;2023-03-19T02:50:24;7.50;99.90
6210;DHT22;3138;52.550;13.148;2023-03-19T02:52:52;7.40;99.90
6210;DHT22;3138;52.550;13.148;2023-03-19T02:55:19;7.50;99.90
6210;DHT22;3138;52.550;13.148;2023-03-19T02:57:46;7.50;99.90
6210;DHT22;3138;52.550;13.148;2023-03-19T03:02:45;7.60;11.20
6210;DHT22;3138;52.550;13.148;2023-03-19T03:05:12;7.60;1.00
6210;DHT22;3138;52.550;13.148;2023-03-19T03:07:39;7.60;1.00
6210;DHT22;3138;52.550;13.148;2023-03-19T03:10:09;7.60;9.90
6210;DHT22;3138;52.550;13.148;2023-03-19T03:12:36;7.60;17.70
6210;DHT22;3138;52.550;13.148;2023-03-19T03:15:05;7.60;31.40
6210;DHT22;3138;52.550;13.148;2023-03-19T03:17:35;7.60;13.30
6210;DHT22;3138;52.550;13.148;2023-03-19T03:20:05;7.60;65.90
6210;DHT22;3138;52.550;13.148;2023-03-19T03:22:32;7.40;99.90
6210;DHT22;3138;52.550;13.148;2023-03-19T03:24:59;7.30;1.00
6210;DHT22;3138;52.550;13.148;2023-03-19T03:27:26;7.30;1.00
6210;DHT22;3138;52.550;13.148;2023-03-19T03:29:55;7.30;1.00
6210;DHT22;3138;52.550;13.148;2023-03-19T03:32:22;7.40;1.00
6210;DHT22;3138;52.550;13.148;2023-03-19T03:34:48;7.30;1.00
6210;DHT22;3138;52.550;13.148;2023-03-19T03:37:17;7.30;1.00
6210;DHT22;3138;52.550;13.148;2023-03-19T03:39:44;7.30;1.00
6210;DHT22;3138;52.550;13.148;2023-03-19T03:42:11;7.20;1.00
6210;DHT22;3138;52.550;13.148;2023-03-19T03:44:38;7.20;1.00
6210;DHT22;3138;52.550;13.148;2023-03-19T03:47:05;7.20;96.50
6210;DHT22;3138;52.550;13.148;2023-03-19T03:49:32;7.20;1.00
6210;DHT22;3138;52.550;13.148;2023-03-19T03:51:59;7.20;3.00
6210;DHT22;3138;52.550;13.148;2023-03-19T03:54:27;7.20;38.30
6210;DHT22;3138;52.550;13.148;2023-03-19T03:56:54;7.20;99.90
6210;DHT22;3138;52.550;13.148;2023-03-19T03:59:21;7.20;99.90
6210;DHT22;3138;52.550;13.148;2023-03-19T04:01:49;7.30;39.20
6210;DHT22;3138;52.550;13.148;2023-03-19T04:04:16;7.30;1.00
6210;DHT22;3138;52.550;13.148;2023-03-19T04:06:44;7.40;1.00
6210;DHT22;3138;52.550;13.148;2023-03-19T04:09:11;7.40;1.00
6210;DHT22;3138;52.550;13.148;2023-03-19T04:11:40;7.40;1.00
6210;DHT22;3138;52.550;13.148;2023-03-19T04:14:07;7.40;99.90
6210;DHT22;3138;52.550;13.148;2023-03-19T04:16:34;7.30;1.00
6210;DHT22;3138;52.550;13.148;2023-03-19T04:19:01;7.30;1.00
6210;DHT22;3138;52.550;13.148;2023-03-19T04:21:28;7.10;99.90
6210;DHT22;3138;52.550;13.148;2023-03-19T04:23:55;7.10;1.00
6210;DHT22;3138;52.550;13.148;2023-03-19T04:26:22;7.10;99.90
6210;DHT22;3138;52.550;13.148;2023-03-19T04:28:50;7.00;1.00
6210;DHT22;3138;52.550;13.148;2023-03-19T04:31:17;7.00;1.00
6210;DHT22;3138;52.550;13.148;2023-03-19T04:33:44;7.10;1.00
6210;DHT22;3138;52.550;13.148;2023-03-19T04:36:11;7.10;1.00
6210;DHT22;3138;52.550;13.148;2023-03-19T04:38:38;7.10;1.00
6210;DHT22;3138;52.550;13.148;2023-03-19T04:41:05;7.20;36.30
6210;DHT22;3138;52.550;13.148;2023-03-19T04:43:32;7.20;55.40
6210;DHT22;3138;52.550;13.148;2023-03-19T04:46:00;7.20;1.00
6210;DHT22;3138;52.550;13.148;2023-03-19T04:48:27;7.20;1.00
6210;DHT22;3138;52.550;13.148;2023-03-19T04:50:54;7.20;1.00
6210;DHT22;3138;52.550;13.148;2023-03-19T04:53:22;7.20;1.00
6210;DHT22;3138;52.550;13.148;2023-03-19T04:55:49;7.20;1.00
6210;DHT22;3138;52.550;13.148;2023-03-19T04:58:16;7.20;1.00
6210;DHT22;3138;52.550;13.148;2023-03-19T05:00:43;7.20;1.00
6210;DHT22;3138;52.550;13.148;2023-03-19T05:03:13;7.20;1.00
6210;DHT22;3138;52.550;13.148;2023-03-19T05:05:40;7.20;1.00
6210;DHT22;3138;52.550;13.148;2023-03-19T05:08:07;7.10;99.90
6210;DHT22;3138;52.550;13.148;2023-03-19T05:10:35;7.10;99.90
6210;DHT22;3138;52.550;13.148;2023-03-19T05:13:02;7.10;1.00
6210;DHT22;3138;52.550;13.148;2023-03-19T05:15:29;7.10;1.00
6210;DHT22;3138;52.550;13.148;2023-03-19T05:17:56;7.00;4.40
6210;DHT22;3138;52.550;13.148;2023-03-19T05:20:24;7.10;84.50
6210;DHT22;3138;52.550;13.148;2023-03-19T05:22:51;7.00;99.90
6210;DHT22;3138;52.550;13.148;2023-03-19T05:25:19;7.10;99.90
6210;DHT22;3138;52.550;13.148;2023-03-19T05:27:46;7.10;99.90
6210;DHT22;3138;52.550;13.148;2023-03-19T05:30:13;7.20;99.90
6210;DHT22;3138;52.550;13.148;2023-03-19T05:32:42;7.10;99.90
6210;DHT22;3138;52.550;13.148;2023-03-19T05:35:11;7.10;99.90
6210;DHT22;3138;52.550;13.148;2023-03-19T05:37:39;7.20;99.90
6210;DHT22;3138;52.550;13.148;2023-03-19T05:40:13;7.20;1.00
6210;DHT22;3138;52.550;13.148;2023-03-19T05:42:45;7.20;1.00
6210;DHT22;3138;52.550;13.148;2023-03-19T05:45:15;7.20;1.00
6210;DHT22;3138;52.550;13.148;2023-03-19T05:47:45;7.30;1.00
6210;DHT22;3138;52.550;13.148;2023-03-19T05:50:12;7.30;1.00
6210;DHT22;3138;52.550;13.148;2023-03-19T05:52:40;7.40;1.00
6210;DHT22;3138;52.550;13.148;2023-03-19T05:55:08;7.50;1.00
6210;DHT22;3138;52.550;13.148;2023-03-19T05:57:35;7.50;1.00
6210;DHT22;3138;52.550;13.148;2023-03-19T06:00:03;7.60;1.00
6210;DHT22;3138;52.550;13.148;2023-03-19T06:02:31;7.60;1.00
6210;DHT22;3138;52.550;13.148;2023-03-19T06:04:58;7.70;1.00
6210;DHT22;3138;52.550;13.148;2023-03-19T06:07:25;7.70;1.00
6210;DHT22;3138;52.550;13.148;2023-03-19T06:09:53;7.70;1.00
6210;DHT22;3138;52.550;13.148;2023-03-19T06:12:20;7.70;1.00
6210;DHT22;3138;52.550;13.148;2023-03-19T06:14:48;7.80;1.00
6210;DHT22;3138;52.550;13.148;2023-03-19T06:17:15;7.80;1.00
6210;DHT22;3138;52.550;13.148;2023-03-19T06:19:42;7.90;1.00
6210;DHT22;3138;52.550;13.148;2023-03-19T06:22:12;7.90;1.00
6210;DHT22;3138;52.550;13.148;2023-03-19T06:24:39;8.00;1.00
6210;DHT22;3138;52.550;13.148;2023-03-19T06:27:08;8.10;1.00
6210;DHT22;3138;52.550;13.148;2023-03-19T06:29:35;8.20;1.00
6210;DHT22;3138;52.550;13.148;2023-03-19T06:32:02;8.30;1.00
6210;DHT22;3138;52.550;13.148;2023-03-19T06:34:30;8.20;1.00
6210;DHT22;3138;52.550;13.148;2023-03-19T06:36:57;8.20;1.00
6210;DHT22;3138;52.550;13.148;2023-03-19T06:39:29;8.30;28.20
6210;DHT22;3138;52.550;13.148;2023-03-19T06:41:56;8.40;27.90
6210;DHT22;3138;52.550;13.148;2023-03-19T06:44:25;8.30;24.80
6210;DHT22;3138;52.550;13.148;2023-03-19T06:46:52;8.20;60.20
6210;DHT22;3138;52.550;13.148;2023-03-19T06:49:20;8.10;99.90
6210;DHT22;3138;52.550;13.148;2023-03-19T06:51:47;8.10;99.90
6210;DHT22;3138;52.550;13.148;2023-03-19T06:54:14;8.10;99.90
6210;DHT22;3138;52.550;13.148;2023-03-19T06:56:41;8.00;99.90
6210;DHT22;3138;52.550;13.148;2023-03-19T06:59:08;8.00;99.90
6210;DHT22;3138;52.550;13.148;2023-03-19T07:01:39;8.00;99.90
6210;DHT22;3138;52.550;13.148;2023-03-19T07:04:09;8.10;99.90
6210;DHT22;3138;52.550;13.148;2023-03-19T07:06:36;8.00;99.90
6210;DHT22;3138;52.550;13.148;2023-03-19T07:09:26;8.00;99.90
6210;DHT22;3138;52.550;13.148;2023-03-19T07:11:57;8.00;99.90
6210;DHT22;3138;52.550;13.148;2023-03-19T07:14:24;8.00;99.90
6210;DHT22;3138;52.550;13.148;2023-03-19T07:34:53;8.40;99.90
6210;DHT22;3138;52.550;13.148;2023-03-19T07:40:20;8.60;99.90
6210;DHT22;3138;52.550;13.148;2023-03-19T07:42:46;8.70;99.90
6210;DHT22;3138;52.550;13.148;2023-03-19T07:45:13;8.80;99.90
6210;DHT22;3138;52.550;13.148;2023-03-19T07:47:42;8.80;99.90
6210;DHT22;3138;52.550;13.148;2023-03-19T07:50:09;8.90;99.90
6210;DHT22;3138;52.550;13.148;2023-03-19T07:52:36;9.00;99.90
6210;DHT22;3138;52.550;13.148;2023-03-19T07:55:04;9.00;99.90
6210;DHT22;3138;52.550;13.148;2023-03-19T07:57:31;9.20;99.90
6210;DHT22;3138;52.550;13.148;2023-03-19T07:59:58;9.30;99.90
6210;DHT22;3138;52.550;13.148;2023-03-19T08:02:25;9.20;99.90
6210;DHT22;3138;52.550;13.148;2023-03-19T08:04:53;9.20;99.90
6210;DHT22;3138;52.550;13.148;2023-03-19T08:07:20;9.10;99.90
6210;DHT22;3138;52.550;13.148;2023-03-19T08:09:47;9.00;99.90
6210;DHT22;3138;52.550;13.148;2023-03-19T08:12:14;9.00;99.90
6210;DHT22;3138;52.550;13.148;2023-03-19T08:14:41;9.00;99.90
6210;DHT22;3138;52.550;13.148;2023-03-19T08:17:08;9.00;99.90
6210;DHT22;3138;52.550;13.148;2023-03-19T08:19:35;9.00;99.90
6210;DHT22;3138;52.550;13.148;2023-03-19T08:22:03;9.00;99.90
6210;DHT22;3138;52.550;13.148;2023-03-19T08:24:30;9.00;99.90
6210;DHT22;3138;52.550;13.148;2023-03-19T08:26:57;9.10;99.90
6210;DHT22;3138;52.550;13.148;2023-03-19T08:29:24;9.20;99.90
6210;DHT22;3138;52.550;13.148;2023-03-19T08:31:52;9.10;99.90
6210;DHT22;3138;52.550;13.148;2023-03-19T08:34:18;9.20;99.90
6210;DHT22;3138;52.550;13.148;2023-03-19T08:36:46;9.20;99.90
6210;DHT22;3138;52.550;13.148;2023-03-19T08:39:14;9.10;99.90
6210;DHT22;3138;52.550;13.148;2023-03-19T08:41:41;9.20;99.90
6210;DHT22;3138;52.550;13.148;2023-03-19T08:44:08;9.30;99.90
6210;DHT22;3138;52.550;13.148;2023-03-19T08:46:35;9.30;99.90
6210;DHT22;3138;52.550;13.148;2023-03-19T08:49:02;9.30;99.90
6210;DHT22;3138;52.550;13.148;2023-03-19T08:51:29;9.40;99.90
6210;DHT22;3138;52.550;13.148;2023-03-19T08:53:56;9.20;99.90
6210;DHT22;3138;52.550;13.148;2023-03-19T08:56:24;9.20;99.90
6210;DHT22;3138;52.550;13.148;2023-03-19T08:58:51;9.20;99.90
6210;DHT22;3138;52.550;13.148;2023-03-19T09:01:18;9.10;99.90
6210;DHT22;3138;52.550;13.148;2023-03-19T09:03:45;9.10;99.90
6210;DHT22;3138;52.550;13.148;2023-03-19T09:06:12;9.20;99.90
6210;DHT22;3138;52.550;13.148;2023-03-19T09:08:40;9.20;99.90
6210;DHT22;3138;52.550;13.148;2023-03-19T09:11:07;9.20;99.90
6210;DHT22;3138;52.550;13.148;2023-03-19T09:13:36;9.40;99.90
6210;DHT22;3138;52.550;13.148;2023-03-19T09:16:04;9.40;99.90
6210;DHT22;3138;52.550;13.148;2023-03-19T09:18:31;9.50;99.90
6210;DHT22;3138;52.550;13.148;2023-03-19T09:20:59;9.50;99.90
6210;DHT22;3138;52.550;13.148;2023-03-19T09:23:26;9.50;99.90
6210;DHT22;3138;52.550;13.148;2023-03-19T09:25:53;9.60;99.90
6210;DHT22;3138;52.550;13.148;2023-03-19T09:28:20;9.60;99.90
6210;DHT22;3138;52.550;13.148;2023-03-19T09:30:49;9.60;99.90
6210;DHT22;3138;52.550;13.148;2023-03-19T09:33:19;9.80;99.90
6210;DHT22;3138;52.550;13.148;2023-03-19T09:35:51;10.00;99.90
6210;DHT22;3138;52.550;13.148;2023-03-19T09:38:18;10.20;99.90
6210;DHT22;3138;52.550;13.148;2023-03-19T09:40:46;10.40;99.90
6210;DHT22;3138;52.550;13.148;2023-03-19T09:43:29;10.60;99.90
6210;DHT22;3138;52.550;13.148;2023-03-19T09:46:04;10.60;99.90
6210;DHT22;3138;52.550;13.148;2023-03-19T09:48:37;10.80;99.90
6210;DHT22;3138;52.550;13.148;2023-03-19T09:51:09;10.80;99.90
6210;DHT22;3138;52.550;13.148;2023-03-19T09:53:44;10.90;99.90
6210;DHT22;3138;52.550;13.148;2023-03-19T09:56:14;11.10;99.90
6210;DHT22;3138;52.550;13.148;2023-03-19T09:58:44;11.30;99.90
6210;DHT22;3138;52.550;13.148;2023-03-19T10:01:22;11.10;72.60
6210;DHT22;3138;52.550;13.148;2023-03-19T10:04:03;11.30;93.00
6210;DHT22;3138;52.550;13.148;2023-03-19T10:06:36;11.30;25.00
6210;DHT22;3138;52.550;13.148;2023-03-19T10:09:20;11.30;1.00
6210;DHT22;3138;52.550;13.148;2023-03-19T10:11:59;11.50;1.00
6210;DHT22;3138;52.550;13.148;2023-03-19T10:14:47;11.40;1.00
6210;DHT22;3138;52.550;13.148;2023-03-19T10:17:21;11.40;1.00
6210;DHT22;3138;52.550;13.148;2023-03-19T10:19:51;11.60;1.00
6210;DHT22;3138;52.550;13.148;2023-03-19T10:22:22;11.70;1.00
6210;DHT22;3138;52.550;13.148;2023-03-19T10:24:52;11.80;1.00
6210;DHT22;3138;52.550;13.148;2023-03-19T10:27:23;11.90;1.00
6210;DHT22;3138;52.550;13.148;2023-03-19T10:29:51;12.10;1.00
6210;DHT22;3138;52.550;13.148;2023-03-19T10:32:26;12.10;1.00
6210;DHT22;3138;52.550;13.148;2023-03-19T10:34:57;12.20;1.00
6210;DHT22;3138;52.550;13.148;2023-03-19T10:37:27;12.20;1.00
6210;DHT22;3138;52.550;13.148;2023-03-19T10:39:56;12.20;99.90
6210;DHT22;3138;52.550;13.148;2023-03-19T10:42:36;12.10;48.60
6210;DHT22;3138;52.550;13.148;2023-03-19T10:45:17;12.30;99.90
6210;DHT22;3138;52.550;13.148;2023-03-19T10:47:47;12.30;63.00
6210;DHT22;3138;52.550;13.148;2023-03-19T10:50:16;12.40;8.30
6210;DHT22;3138;52.550;13.148;2023-03-19T10:52:45;12.50;72.30
6210;DHT22;3138;52.550;13.148;2023-03-19T10:55:17;12.50;10.80
6210;DHT22;3138;52.550;13.148;2023-03-19T10:57:50;12.60;1.00
6210;DHT22;3138;52.550;13.148;2023-03-19T11:00:23;12.50;1.00
6210;DHT22;3138;52.550;13.148;2023-03-19T11:02:54;12.40;1.00
6210;DHT22;3138;52.550;13.148;2023-03-19T11:05:24;12.60;1.00
6210;DHT22;3138;52.550;13.148;2023-03-19T11:07:55;12.60;1.00
6210;DHT22;3138;52.550;13.148;2023-03-19T11:10:24;12.70;1.00
6210;DHT22;3138;52.550;13.148;2023-03-19T11:12:55;12.60;1.00
6210;DHT22;3138;52.550;13.148;2023-03-19T11:15:27;12.70;1.00
6210;DHT22;3138;52.550;13.148;2023-03-19T11:17:58;12.70;99.90
6210;DHT22;3138;52.550;13.148;2023-03-19T11:20:31;12.70;99.90
6210;DHT22;3138;52.550;13.148;2023-03-19T11:22:58;12.80;99.90
6210;DHT22;3138;52.550;13.148;2023-03-19T11:25:30;13.10;99.90
6210;DHT22;3138;52.550;13.148;2023-03-19T11:28:02;13.30;99.90
6210;DHT22;3138;52.550;13.148;2023-03-19T11:30:35;13.20;2.50
6210;DHT22;3138;52.550;13.148;2023-03-19T11:36:11;13.20;1.00
6210;DHT22;3138;52.550;13.148;2023-03-19T11:38:47;13.20;99.90
6210;DHT22;3138;52.550;13.148;2023-03-19T11:41:25;13.20;46.80
6210;DHT22;3138;52.550;13.148;2023-03-19T11:43:58;13.20;18.10
6210;DHT22;3138;52.550;13.148;2023-03-19T11:46:36;13.20;1.00
6210;DHT22;3138;52.550;13.148;2023-03-19T11:49:19;13.20;1.00
6210;DHT22;3138;52.550;13.148;2023-03-19T11:51:55;13.10;1.00
6210;DHT22;3138;52.550;13.148;2023-03-19T11:54:33;13.10;1.00
6210;DHT22;3138;52.550;13.148;2023-03-19T11:57:07;13.20;99.90
6210;DHT22;3138;52.550;13.148;2023-03-19T11:59:56;13.20;99.90
6210;DHT22;3138;52.550;13.148;2023-03-19T12:02:45;13.30;99.90
6210;DHT22;3138;52.550;13.148;2023-03-19T12:05:23;13.20;1.00
6210;DHT22;3138;52.550;13.148;2023-03-19T12:08:06;13.20;99.90
6210;DHT22;3138;52.550;13.148;2023-03-19T12:10:52;13.30;99.90
6210;DHT22;3138;52.550;13.148;2023-03-19T12:13:49;13.30;1.00
6210;DHT22;3138;52.550;13.148;2023-03-19T12:16:24;13.30;99.90
6210;DHT22;3138;52.550;13.148;2023-03-19T12:19:22;13.50;57.00
6210;DHT22;3138;52.550;13.148;2023-03-19T12:22:01;13.60;1.00
6210;DHT22;3138;52.550;13.148;2023-03-19T12:24:40;13.90;1.00
6210;DHT22;3138;52.550;13.148;2023-03-19T12:27:21;14.10;99.90
6210;DHT22;3138;52.550;13.148;2023-03-19T12:29:59;14.30;99.90
6210;DHT22;3138;52.550;13.148;2023-03-19T12:32:36;14.50;99.90
6210;DHT22;3138;52.550;13.148;2023-03-19T12:35:10;14.60;1.00
6210;DHT22;3138;52.550;13.148;2023-03-19T12:37:41;14.30;1.00
6210;DHT22;3138;52.550;13.148;2023-03-19T12:40:24;14.40;1.00
6210;DHT22;3138;52.550;13.148;2023-03-19T12:42:55;14.40;1.00
6210;DHT22;3138;52.550;13.148;2023-03-19T12:45:27;14.60;1.00
6210;DHT22;3138;52.550;13.148;2023-03-19T12:47:59;14.60;1.00
6210;DHT22;3138;52.550;13.148;2023-03-19T12:50:28;14.60;99.90
6210;DHT22;3138;52.550;13.148;2023-03-19T12:52:59;14.70;99.90
6210;DHT22;3138;52.550;13.148;2023-03-19T12:55:34;14.60;99.90
6210;DHT22;3138;52.550;13.148;2023-03-19T12:58:07;14.50;99.90
6210;DHT22;3138;52.550;13.148;2023-03-19T13:00:41;14.50;95.20
6210;DHT22;3138;52.550;13.148;2023-03-19T13:03:14;14.60;45.60
6210;DHT22;3138;52.550;13.148;2023-03-19T13:05:46;14.60;1.00
6210;DHT22;3138;52.550;13.148;2023-03-19T13:08:18;14.60;1.00
6210;DHT22;3138;52.550;13.148;2023-03-19T13:10:48;14.70;1.00
6210;DHT22;3138;52.550;13.148;2023-03-19T13:13:26;14.70;1.00
6210;DHT22;3138;52.550;13.148;2023-03-19T13:15:56;14.80;1.00
6210;DHT22;3138;52.550;13.148;2023-03-19T13:18:35;14.80;1.00
6210;DHT22;3138;52.550;13.148;2023-03-19T13:21:14;14.80;1.00
6210;DHT22;3138;52.550;13.148;2023-03-19T13:23:47;14.80;1.00
6210;DHT22;3138;52.550;13.148;2023-03-19T13:26:16;14.90;1.00
6210;DHT22;3138;52.550;13.148;2023-03-19T13:28:54;15.20;1.00
6210;DHT22;3138;52.550;13.148;2023-03-19T13:31:25;15.50;1.00
6210;DHT22;3138;52.550;13.148;2023-03-19T13:33:59;15.60;1.00
6210;DHT22;3138;52.550;13.148;2023-03-19T13:36:28;15.50;1.00
6210;DHT22;3138;52.550;13.148;2023-03-19T13:38:58;15.40;1.00
6210;DHT22;3138;52.550;13.148;2023-03-19T13:41:47;15.30;99.90
6210;DHT22;3138;52.550;13.148;2023-03-19T13:44:33;15.30;99.90
6210;DHT22;3138;52.550;13.148;2023-03-19T13:47:00;15.30;99.90
6210;DHT22;3138;52.550;13.148;2023-03-19T13:49:32;15.20;99.90
6210;DHT22;3138;52.550;13.148;2023-03-19T13:52:41;15.20;99.90
6210;DHT22;3138;52.550;13.148;2023-03-19T13:55:44;15.30;99.90
6210;DHT22;3138;52.550;13.148;2023-03-19T13:58:19;15.40;99.90
6210;DHT22;3138;52.550;13.148;2023-03-19T14:01:04;15.30;99.90
6210;DHT22;3138;52.550;13.148;2023-03-19T14:03:32;15.40;99.90
6210;DHT22;3138;52.550;13.148;2023-03-19T14:06:01;15.40;99.90
6210;DHT22;3138;52.550;13.148;2023-03-19T14:08:32;15.30;99.90
6210;DHT22;3138;52.550;13.148;2023-03-19T14:11:08;15.40;99.90
6210;DHT22;3138;52.550;13.148;2023-03-19T14:13:38;15.50;99.90
6210;DHT22;3138;52.550;13.148;2023-03-19T14:16:13;15.40;99.90
6210;DHT22;3138;52.550;13.148;2023-03-19T14:18:42;15.50;99.90
6210;DHT22;3138;52.550;13.148;2023-03-19T14:21:13;15.70;99.90
6210;DHT22;3138;52.550;13.148;2023-03-19T14:23:41;15.70;99.90
6210;DHT22;3138;52.550;13.148;2023-03-19T14:26:19;15.60;99.90
6210;DHT22;3138;52.550;13.148;2023-03-19T14:28:58;15.60;99.90
6210;DHT22;3138;52.550;13.148;2023-03-19T14:31:32;15.70;99.90
6210;DHT22;3138;52.550;13.148;2023-03-19T14:34:04;15.70;99.90
6210;DHT22;3138;52.550;13.148;2023-03-19T14:36:35;15.70;99.90
6210;DHT22;3138;52.550;13.148;2023-03-19T14:39:08;15.80;66.90
6210;DHT22;3138;52.550;13.148;2023-03-19T14:41:43;15.80;25.10
6210;DHT22;3138;52.550;13.148;2023-03-19T14:47:30;15.90;38.70
6210;DHT22;3138;52.550;13.148;2023-03-19T14:50:33;15.90;27.80
6210;DHT22;3138;52.550;13.148;2023-03-19T14:53:07;15.90;5.00
6210;DHT22;3138;52.550;13.148;2023-03-19T14:55:39;15.90;1.00
6210;DHT22;3138;52.550;13.148;2023-03-19T14:58:10;15.70;1.00
6210;DHT22;3138;52.550;13.148;2023-03-19T15:00:40;15.60;1.00
6210;DHT22;3138;52.550;13.148;2023-03-19T15:03:21;15.60;3.20
6210;DHT22;3138;52.550;13.148;2023-03-19T15:05:50;15.60;1.00
6210;DHT22;3138;52.550;13.148;2023-03-19T15:08:22;15.60;1.00
6210;DHT22;3138;52.550;13.148;2023-03-19T15:10:59;15.50;1.00
6210;DHT22;3138;52.550;13.148;2023-03-19T15:13:38;15.50;1.00
6210;DHT22;3138;52.550;13.148;2023-03-19T15:19:00;15.40;1.00
6210;DHT22;3138;52.550;13.148;2023-03-19T15:21:28;15.40;1.00
6210;DHT22;3138;52.550;13.148;2023-03-19T15:23:56;15.30;1.00
6210;DHT22;3138;52.550;13.148;2023-03-19T15:26:30;15.30;1.00
6210;DHT22;3138;52.550;13.148;2023-03-19T15:28:59;15.30;1.00
6210;DHT22;3138;52.550;13.148;2023-03-19T15:31:40;15.30;15.70
6210;DHT22;3138;52.550;13.148;2023-03-19T15:34:21;15.30;26.50
6210;DHT22;3138;52.550;13.148;2023-03-19T15:36:51;15.20;28.10
6210;DHT22;3138;52.550;13.148;2023-03-19T15:39:20;15.30;20.70
6210;DHT22;3138;52.550;13.148;2023-03-19T15:41:49;15.20;49.00
6210;DHT22;3138;52.550;13.148;2023-03-19T15:44:22;15.20;92.00
6210;DHT22;3138;52.550;13.148;2023-03-19T15:46:53;15.20;99.90
6210;DHT22;3138;52.550;13.148;2023-03-19T15:49:24;15.20;99.90
6210;DHT22;3138;52.550;13.148;2023-03-19T15:51:54;15.20;99.90
6210;DHT22;3138;52.550;13.148;2023-03-19T15:54:24;15.20;99.90
6210;DHT22;3138;52.550;13.148;2023-03-19T15:56:52;15.10;99.90
6210;DHT22;3138;52.550;13.148;2023-03-19T15:59:22;15.20;99.90
6210;DHT22;3138;52.550;13.148;2023-03-19T16:01:51;15.10;99.90
6210;DHT22;3138;52.550;13.148;2023-03-19T16:04:21;15.10;99.90
6210;DHT22;3138;52.550;13.148;2023-03-19T16:06:51;15.00;99.90
6210;DHT22;3138;52.550;13.148;2023-03-19T16:09:25;14.90;99.90
6210;DHT22;3138;52.550;13.148;2023-03-19T16:11:53;14.90;99.90
6210;DHT22;3138;52.550;13.148;2023-03-19T16:14:26;14.90;1.00
6210;DHT22;3138;52.550;13.148;2023-03-19T16:17:01;14.80;1.00
6210;DHT22;3138;52.550;13.148;2023-03-19T16:19:34;14.70;99.90
6210;DHT22;3138;52.550;13.148;2023-03-19T16:22:03;14.60;1.00
6210;DHT22;3138;52.550;13.148;2023-03-19T16:24:38;14.50;99.90
6210;DHT22;3138;52.550;13.148;2023-03-19T16:27:09;14.50;99.90
6210;DHT22;3138;52.550;13.148;2023-03-19T16:29:40;14.40;99.90
6210;DHT22;3138;52.550;13.148;2023-03-19T16:32:18;14.30;99.90
6210;DHT22;3138;52.550;13.148;2023-03-19T16:34:46;14.20;1.00
6210;DHT22;3138;52.550;13.148;2023-03-19T16:37:32;14.10;25.20
6210;DHT22;3138;52.550;13.148;2023-03-19T16:40:02;13.90;99.90
6210;DHT22;3138;52.550;13.148;2023-03-19T16:42:36;13.70;99.90
6210;DHT22;3138;52.550;13.148;2023-03-19T16:45:19;13.60;1.00
6210;DHT22;3138;52.550;13.148;2023-03-19T16:47:47;13.50;1.00
6210;DHT22;3138;52.550;13.148;2023-03-19T16:50:15;13.30;1.00
6210;DHT22;3138;52.550;13.148;2023-03-19T16:52:43;13.20;1.00
6210;DHT22;3138;52.550;13.148;2023-03-19T16:55:20;13.00;1.00
6210;DHT22;3138;52.550;13.148;2023-03-19T16:57:54;12.90;43.70